Time;durP1;ratioP1;P1;durP2;ratioP2;P2;SDS_P1;SDS_P2;PMS_P1;PMS_P2;Temp;Humidity;BMP_temperature;BMP_pressure;BME280_temperature;BME280_humidity;BME280_pressure;Samples;Min_cycle;Max_cycle;Signal;HPM_P1;HPM_P2
2022/10/17 00:01:21;;;;;;;11.60;2.70;;;;;;;;;;4986761;28;20018;-78
2022/10/17 00:03:47;;;;;;;12.43;3.00;;;;;;;;;;5004163;28;20271;-78
2022/10/17 00:06:14;;;;;;;9.95;2.70;;;;;;;;;;5004121;28;20066;-77
2022/10/17 00:08:40;;;;;;;13.05;3.03;;;;;;;;;;5004121;28;20098;-77
2022/10/17 00:11:08;;;;;;;9.80;2.40;;;;;;;;;;5004018;28;20027;-78
2022/10/17 00:13:34;;;;;;;10.93;2.72;;;;;;;;;;5003942;28;20049;-78
2022/10/17 00:16:00;;;;;;;10.23;2.85;;;;;;;;;;5004249;28;20034;-78
2022/10/17 00:18:25;;;;;;;11.52;3.20;;;;;;;;;;5007272;28;20046;-78
2022/10/17 00:20:51;;;;;;;12.65;2.70;;;;;;;;;;5007612;28;20026;-78
2022/10/17 00:23:17;;;;;;;8.10;2.70;;;;;;;;;;5007566;28;20053;-77
2022/10/17 00:25:42;;;;;;;11.18;3.13;;;;;;;;;;5007543;28;20214;-78
2022/10/17 00:28:09;;;;;;;11.77;3.08;;;;;;;;;;5007434;28;20022;-78
2022/10/17 00:30:34;;;;;;;11.95;2.90;;;;;;;;;;5007439;28;20022;-78
2022/10/17 00:33:00;;;;;;;12.23;3.28;;;;;;;;;;4989929;28;20053;-79
2022/10/17 00:35:25;;;;;;;9.98;2.90;;;;;;;;;;5007034;28;20274;-78
2022/10/17 00:37:51;;;;;;;8.38;2.88;;;;;;;;;;5007427;28;20024;-78
2022/10/17 00:40:16;;;;;;;9.02;2.83;;;;;;;;;;5006641;28;20026;-78
2022/10/17 00:42:42;;;;;;;7.75;2.78;;;;;;;;;;5006387;28;20080;-78
2022/10/17 00:45:15;;;;;;;7.55;2.80;;;;;;;;;;5006620;28;20386;-78
2022/10/17 00:47:42;;;;;;;9.30;2.63;;;;;;;;;;5006990;28;20030;-78
2022/10/17 00:50:08;;;;;;;11.70;3.33;;;;;;;;;;5006305;28;20343;-77
2022/10/17 00:52:34;;;;;;;12.02;2.85;;;;;;;;;;5006128;28;20023;-78
2022/10/17 00:55:22;;;;;;;8.43;2.85;;;;;;;;;;5006133;28;20068;-78
2022/10/17 00:57:49;;;;;;;10.80;2.80;;;;;;;;;;5005811;28;20030;-77
2022/10/17 01:00:16;;;;;;;9.13;2.83;;;;;;;;;;5005232;28;20094;-78
2022/10/17 01:02:42;;;;;;;8.95;2.70;;;;;;;;;;4989136;28;20030;-77
2022/10/17 01:05:08;;;;;;;13.30;3.30;;;;;;;;;;5005963;28;20029;-80
2022/10/17 01:07:34;;;;;;;11.85;3.45;;;;;;;;;;4988802;28;20253;-77
2022/10/17 01:10:00;;;;;;;9.90;2.80;;;;;;;;;;5006489;28;20046;-80
2022/10/17 01:12:34;;;;;;;12.60;3.13;;;;;;;;;;5006599;28;20049;-78
2022/10/17 01:15:03;;;;;;;13.07;3.00;;;;;;;;;;4988043;28;20031;-77
2022/10/17 01:17:37;;;;;;;9.68;3.28;;;;;;;;;;5005909;28;20328;-78
2022/10/17 01:20:09;;;;;;;13.00;3.13;;;;;;;;;;4987604;28;20026;-76
2022/10/17 01:22:58;;;;;;;10.82;3.10;;;;;;;;;;5005673;28;20034;-77
2022/10/17 01:25:30;;;;;;;10.90;2.97;;;;;;;;;;4988137;28;20033;-78
2022/10/17 01:28:15;;;;;;;12.20;3.08;;;;;;;;;;5005356;28;20022;-78
2022/10/17 01:31:02;;;;;;;10.23;2.83;;;;;;;;;;5005426;28;20034;-76
2022/10/17 01:33:46;;;;;;;9.23;2.40;;;;;;;;;;5005299;28;20025;-76
2022/10/17 01:36:38;;;;;;;6.15;2.75;;;;;;;;;;5005757;28;20054;-77
2022/10/17 01:39:26;;;;;;;11.00;3.03;;;;;;;;;;5006304;28;20269;-77
2022/10/17 01:42:06;;;;;;;10.15;3.10;;;;;;;;;;5006054;28;20230;-78
2022/10/17 01:44:54;;;;;;;12.00;3.10;;;;;;;;;;5006272;28;20026;-77
2022/10/17 01:47:23;;;;;;;10.80;3.05;;;;;;;;;;4988633;28;20105;-76
2022/10/17 01:49:52;;;;;;;9.98;3.33;;;;;;;;;;5005817;28;20022;-76
2022/10/17 01:52:28;;;;;;;9.98;3.00;;;;;;;;;;5005866;28;20022;-76
2022/10/17 01:55:04;;;;;;;10.15;2.95;;;;;;;;;;5005779;28;20030;-75
2022/10/17 01:57:40;;;;;;;9.82;2.72;;;;;;;;;;4988140;28;20352;-75
2022/10/17 02:00:10;;;;;;;13.10;2.97;;;;;;;;;;4987718;28;20030;-75
2022/10/17 02:02:36;;;;;;;11.10;2.88;;;;;;;;;;5005545;28;20037;-75
2022/10/17 02:05:02;;;;;;;12.52;2.67;;;;;;;;;;5005307;28;20086;-76
2022/10/17 02:07:27;;;;;;;11.27;2.80;;;;;;;;;;5004458;28;20026;-76
2022/10/17 02:09:53;;;;;;;9.90;2.50;;;;;;;;;;4987002;28;20029;-76
2022/10/17 02:12:57;;;;;;;17.58;3.30;;;;;;;;;;5005141;28;20023;-76
2022/10/17 02:15:38;;;;;;;10.10;2.70;;;;;;;;;;4956218;28;20046;-74
2022/10/17 02:18:19;;;;;;;8.60;2.55;;;;;;;;;;5005343;28;20022;-78
2022/10/17 02:21:01;;;;;;;11.75;2.53;;;;;;;;;;4987950;28;20230;-78
2022/10/17 02:23:44;;;;;;;11.50;2.50;;;;;;;;;;5005241;28;20026;-78
2022/10/17 02:26:25;;;;;;;8.82;2.70;;;;;;;;;;4987910;28;20077;-79
2022/10/17 02:29:08;;;;;;;;;;;;;;;;;;4988388;28;20032;-78
2022/10/17 02:31:48;;;;;;;10.45;2.50;;;;;;;;;;4987876;28;19952;-78
2022/10/17 02:34:21;;;;;;;13.07;2.72;;;;;;;;;;5004871;28;20023;-78
2022/10/17 02:36:51;;;;;;;12.35;2.90;;;;;;;;;;5005064;28;20098;-78
2022/10/17 02:39:19;;;;;;;8.60;2.50;;;;;;;;;;5005025;28;20028;-78
2022/10/17 02:41:47;;;;;;;9.35;2.70;;;;;;;;;;5004899;28;20399;-79
2022/10/17 02:44:13;;;;;;;10.85;2.30;;;;;;;;;;5005006;28;20059;-75
2022/10/17 02:46:40;;;;;;;9.55;2.38;;;;;;;;;;5005024;28;20018;-78
2022/10/17 02:49:19;;;;;;;8.40;2.58;;;;;;;;;;5004776;28;20018;-81
2022/10/17 02:52:09;;;;;;;10.63;2.45;;;;;;;;;;5004898;28;20072;-82
2022/10/17 02:54:41;;;;;;;12.65;2.75;;;;;;;;;;5004743;28;20049;-82
2022/10/17 02:57:20;;;;;;;13.02;2.60;;;;;;;;;;5004816;28;20026;-76
2022/10/17 02:59:46;;;;;;;12.75;2.63;;;;;;;;;;4987318;28;20110;-75
2022/10/17 03:02:12;;;;;;;11.55;2.60;;;;;;;;;;5004828;28;20030;-79
2022/10/17 03:04:42;;;;;;;8.60;2.92;;;;;;;;;;5004730;28;20254;-78
2022/10/17 03:07:07;;;;;;;10.30;2.13;;;;;;;;;;5004704;28;20026;-79
2022/10/17 03:09:32;;;;;;;12.15;2.42;;;;;;;;;;5004689;28;20262;-79
2022/10/17 03:11:58;;;;;;;12.20;2.75;;;;;;;;;;5004590;28;20298;-78
2022/10/17 03:14:23;;;;;;;11.40;2.50;;;;;;;;;;5004579;28;20029;-76
2022/10/17 03:16:48;;;;;;;10.30;2.80;;;;;;;;;;5004520;28;20320;-76
2022/10/17 03:19:14;;;;;;;7.72;2.20;;;;;;;;;;4987188;28;20046;-76
2022/10/17 03:21:40;;;;;;;11.07;2.60;;;;;;;;;;5004494;28;20022;-78
2022/10/17 03:24:05;;;;;;;10.70;2.15;;;;;;;;;;5004049;28;20022;-75
2022/10/17 03:26:31;;;;;;;8.82;2.40;;;;;;;;;;5004391;28;20057;-75
2022/10/17 03:28:56;;;;;;;7.22;2.30;;;;;;;;;;5004169;28;20019;-75
2022/10/17 03:31:22;;;;;;;11.25;2.55;;;;;;;;;;5004085;28;20365;-77
2022/10/17 03:33:47;;;;;;;11.02;2.40;;;;;;;;;;5003689;28;20026;-76
2022/10/17 03:36:15;;;;;;;12.10;2.60;;;;;;;;;;5003148;28;20125;-75
2022/10/17 03:38:41;;;;;;;13.55;2.78;;;;;;;;;;4986465;28;20033;-77
2022/10/17 03:41:07;;;;;;;9.32;2.45;;;;;;;;;;5003794;28;20256;-77
2022/10/17 03:43:33;;;;;;;9.80;2.30;;;;;;;;;;5003664;28;20038;-79
2022/10/17 03:45:59;;;;;;;9.73;2.65;;;;;;;;;;5003730;28;20101;-79
2022/10/17 03:48:26;;;;;;;9.10;2.40;;;;;;;;;;5003285;28;20084;-76
2022/10/17 03:50:58;;;;;;;9.85;2.45;;;;;;;;;;5003552;28;20030;-76
2022/10/17 03:53:24;;;;;;;11.07;2.40;;;;;;;;;;5006413;28;20214;-77
2022/10/17 03:55:49;;;;;;;9.07;2.60;;;;;;;;;;5006564;28;20037;-79
2022/10/17 03:58:14;;;;;;;9.88;2.38;;;;;;;;;;5007807;28;20025;-76
2022/10/17 04:00:40;;;;;;;10.52;2.88;;;;;;;;;;5007371;28;20018;-78
2022/10/17 04:03:05;;;;;;;9.43;2.90;;;;;;;;;;5007213;28;20057;-77
2022/10/17 04:05:31;;;;;;;10.23;2.50;;;;;;;;;;5007953;28;20022;-77
2022/10/17 04:07:56;;;;;;;12.25;2.60;;;;;;;;;;4990488;28;20022;-80
2022/10/17 04:10:21;;;;;;;9.80;2.38;;;;;;;;;;5007795;28;20018;-77
2022/10/17 04:12:47;;;;;;;8.57;2.42;;;;;;;;;;4990346;28;20022;-78
2022/10/17 04:15:12;;;;;;;8.52;2.30;;;;;;;;;;5007606;28;20026;-80
2022/10/17 04:17:37;;;;;;;13.70;2.45;;;;;;;;;;5007717;28;20306;-77
2022/10/17 04:20:03;;;;;;;9.65;2.72;;;;;;;;;;5007879;28;20018;-77
2022/10/17 04:22:29;;;;;;;9.90;2.72;;;;;;;;;;5007228;28;20218;-75
2022/10/17 04:24:54;;;;;;;12.20;2.35;;;;;;;;;;5007422;28;20306;-77
2022/10/17 04:27:19;;;;;;;12.77;2.65;;;;;;;;;;5007601;28;20022;-78
2022/10/17 04:29:45;;;;;;;9.82;2.50;;;;;;;;;;5007368;28;20022;-78
2022/10/17 04:32:10;;;;;;;6.75;2.10;;;;;;;;;;4990012;28;20033;-78
2022/10/17 04:34:36;;;;;;;15.45;2.50;;;;;;;;;;5007155;28;20322;-77
2022/10/17 04:37:01;;;;;;;14.20;2.70;;;;;;;;;;4989907;28;20306;-77
2022/10/17 04:39:26;;;;;;;16.42;2.53;;;;;;;;;;5007535;28;20018;-77
2022/10/17 04:41:52;;;;;;;9.55;2.58;;;;;;;;;;5007276;28;20081;-77
2022/10/17 04:44:19;;;;;;;11.20;2.70;;;;;;;;;;5007226;28;20037;-76
2022/10/17 04:46:45;;;;;;;8.32;2.30;;;;;;;;;;5007051;28;20048;-75
2022/10/17 04:49:10;;;;;;;11.25;2.85;;;;;;;;;;5006387;28;20018;-76
2022/10/17 04:51:37;;;;;;;8.32;2.40;;;;;;;;;;5006432;28;20022;-75
2022/10/17 04:54:02;;;;;;;9.55;2.45;;;;;;;;;;5006468;28;20023;-76
2022/10/17 04:56:28;;;;;;;11.38;2.15;;;;;;;;;;5006881;28;20030;-76
2022/10/17 04:58:53;;;;;;;8.60;2.75;;;;;;;;;;4989632;28;20309;-76
2022/10/17 05:01:22;;;;;;;10.88;2.60;;;;;;;;;;5006874;28;20193;-76
2022/10/17 05:03:47;;;;;;;15.27;2.78;;;;;;;;;;5005946;28;20022;-75
2022/10/17 05:06:19;;;;;;;9.38;2.60;;;;;;;;;;5006201;28;20033;-77
2022/10/17 05:08:45;;;;;;;14.23;2.67;;;;;;;;;;5006193;28;20026;-77
2022/10/17 05:11:24;;;;;;;9.07;2.45;;;;;;;;;;5006274;28;20069;-77
2022/10/17 05:13:53;;;;;;;10.95;2.67;;;;;;;;;;5006520;28;20022;-78
2022/10/17 05:16:19;;;;;;;11.02;2.67;;;;;;;;;;5006292;28;20081;-78
2022/10/17 05:18:47;;;;;;;10.23;2.78;;;;;;;;;;5006168;28;20031;-77
2022/10/17 05:21:13;;;;;;;12.43;2.80;;;;;;;;;;5006099;28;20381;-77
2022/10/17 05:23:38;;;;;;;11.32;2.60;;;;;;;;;;5006099;28;20022;-77
2022/10/17 05:26:04;;;;;;;16.30;2.90;;;;;;;;;;5006159;28;20023;-77
2022/10/17 05:28:30;;;;;;;9.75;2.47;;;;;;;;;;4988832;28;20030;-77
2022/10/17 05:30:55;;;;;;;9.70;2.42;;;;;;;;;;5006602;28;20026;-77
2022/10/17 05:33:22;;;;;;;9.10;2.47;;;;;;;;;;5006255;28;20019;-77
2022/10/17 05:35:47;;;;;;;8.90;2.92;;;;;;;;;;5005619;28;20234;-77
2022/10/17 05:38:13;;;;;;;10.80;2.58;;;;;;;;;;4988812;28;20073;-76
2022/10/17 05:40:38;;;;;;;15.90;2.95;;;;;;;;;;5006204;28;20021;-75
2022/10/17 05:43:04;;;;;;;12.65;2.70;;;;;;;;;;5006040;28;20369;-75
2022/10/17 05:45:29;;;;;;;10.35;2.45;;;;;;;;;;5005007;28;20034;-77
2022/10/17 05:47:54;;;;;;;12.05;2.70;;;;;;;;;;5004999;28;20026;-79
2022/10/17 05:50:20;;;;;;;13.68;2.90;;;;;;;;;;5005542;28;20037;-75
2022/10/17 05:52:46;;;;;;;14.07;2.92;;;;;;;;;;4987703;28;20034;-75
2022/10/17 05:55:11;;;;;;;12.55;2.90;;;;;;;;;;5004747;28;20069;-79
2022/10/17 05:57:37;;;;;;;13.48;2.63;;;;;;;;;;5005691;28;20026;-78
2022/10/17 06:00:03;;;;;;;11.05;2.88;;;;;;;;;;4987694;28;20044;-79
2022/10/17 06:02:29;;;;;;;12.75;2.78;;;;;;;;;;5005752;28;20026;-80
2022/10/17 06:04:54;;;;;;;14.50;2.58;;;;;;;;;;5004317;28;20034;-77
2022/10/17 06:07:20;;;;;;;11.43;2.83;;;;;;;;;;5004911;28;20049;-77
2022/10/17 06:09:45;;;;;;;12.10;2.65;;;;;;;;;;5005387;28;20026;-78
2022/10/17 06:12:11;;;;;;;10.00;2.70;;;;;;;;;;5005603;28;20365;-74
2022/10/17 06:14:36;;;;;;;14.25;2.45;;;;;;;;;;5005158;28;20022;-76
2022/10/17 06:17:01;;;;;;;12.77;2.70;;;;;;;;;;5005428;28;20027;-77
2022/10/17 06:19:27;;;;;;;9.45;2.60;;;;;;;;;;5005304;28;20406;-86
2022/10/17 06:21:52;;;;;;;11.35;2.72;;;;;;;;;;4986552;28;20022;-74
2022/10/17 06:24:17;;;;;;;10.43;2.47;;;;;;;;;;5004003;28;20022;-75
2022/10/17 06:26:43;;;;;;;11.68;2.72;;;;;;;;;;5004673;28;20053;-77
2022/10/17 06:29:09;;;;;;;9.05;2.42;;;;;;;;;;5004216;28;20101;-75
2022/10/17 06:31:34;;;;;;;11.88;2.78;;;;;;;;;;5004772;28;20026;-83
2022/10/17 06:34:00;;;;;;;12.63;2.40;;;;;;;;;;4987188;28;20057;-79
2022/10/17 06:36:25;;;;;;;13.32;2.47;;;;;;;;;;5004384;28;20050;-77
2022/10/17 06:38:50;;;;;;;9.20;2.17;;;;;;;;;;5004497;28;20177;-79
2022/10/17 06:41:18;;;;;;;9.23;2.42;;;;;;;;;;5004901;28;20022;-85
2022/10/17 06:43:45;;;;;;;8.90;2.58;;;;;;;;;;5003771;28;20310;-83
2022/10/17 06:46:12;;;;;;;8.25;2.30;;;;;;;;;;5005180;28;20064;-79
2022/10/17 06:48:37;;;;;;;5.57;2.28;;;;;;;;;;5004975;28;20029;-79
2022/10/17 06:51:05;;;;;;;12.50;2.38;;;;;;;;;;5004192;28;20022;-81
2022/10/17 06:53:32;;;;;;;9.27;2.63;;;;;;;;;;5004373;28;20022;-76
2022/10/17 06:56:02;;;;;;;12.68;2.20;;;;;;;;;;5004021;28;20034;-78
2022/10/17 06:58:30;;;;;;;17.52;2.70;;;;;;;;;;5004364;28;20018;-75
2022/10/17 07:01:04;;;;;;;12.00;2.47;;;;;;;;;;5003518;28;20028;-75
2022/10/17 07:03:30;;;;;;;9.35;2.25;;;;;;;;;;4987327;28;20102;-74
2022/10/17 07:05:56;;;;;;;10.25;2.63;;;;;;;;;;5003304;28;20213;-75
2022/10/17 07:08:22;;;;;;;13.07;2.72;;;;;;;;;;4986806;28;20037;-76
2022/10/17 07:10:47;;;;;;;12.82;2.38;;;;;;;;;;5004014;28;20026;-75
2022/10/17 07:13:13;;;;;;;13.77;2.78;;;;;;;;;;5003055;28;20298;-76
2022/10/17 07:15:39;;;;;;;16.55;2.85;;;;;;;;;;5003903;28;20041;-75
2022/10/17 07:18:04;;;;;;;11.40;2.60;;;;;;;;;;5004556;28;20034;-75
2022/10/17 07:20:30;;;;;;;7.40;2.05;;;;;;;;;;5004450;28;20022;-76
2022/10/17 07:22:56;;;;;;;11.40;2.47;;;;;;;;;;4999670;28;20199;-76
2022/10/17 07:25:21;;;;;;;14.40;2.60;;;;;;;;;;5000671;28;20057;-77
2022/10/17 07:27:51;;;;;;;12.20;2.60;;;;;;;;;;4997450;28;20128;-77
2022/10/17 07:30:17;;;;;;;12.13;2.60;;;;;;;;;;4997924;28;20022;-77
2022/10/17 07:32:42;;;;;;;10.85;2.35;;;;;;;;;;4997678;28;20030;-76
2022/10/17 07:35:09;;;;;;;10.25;2.28;;;;;;;;;;4997453;28;20057;-76
2022/10/17 07:37:34;;;;;;;14.98;2.70;;;;;;;;;;4997817;28;20038;-75
2022/10/17 07:40:00;;;;;;;12.38;2.63;;;;;;;;;;4997519;28;20092;-76
2022/10/17 07:42:27;;;;;;;10.80;2.45;;;;;;;;;;4997876;28;20022;-75
2022/10/17 07:44:53;;;;;;;13.57;2.35;;;;;;;;;;4997537;28;20022;-76
2022/10/17 07:47:18;;;;;;;12.02;2.35;;;;;;;;;;4997615;28;20029;-76
2022/10/17 07:49:44;;;;;;;12.52;2.42;;;;;;;;;;4997390;28;20019;-76
2022/10/17 07:52:13;;;;;;;11.90;2.58;;;;;;;;;;4979741;28;20026;-76
2022/10/17 07:54:39;;;;;;;10.85;2.42;;;;;;;;;;4979822;28;20538;-75
2022/10/17 07:57:04;;;;;;;12.23;2.28;;;;;;;;;;4997383;28;20101;-75
2022/10/17 07:59:32;;;;;;;15.10;2.78;;;;;;;;;;4979836;28;20030;-75
2022/10/17 08:01:58;;;;;;;12.60;2.53;;;;;;;;;;4997808;28;20409;-75
2022/10/17 08:04:24;;;;;;;9.63;2.47;;;;;;;;;;4997082;28;20505;-75
2022/10/17 08:06:50;;;;;;;14.23;2.67;;;;;;;;;;4997036;28;20494;-75
2022/10/17 08:09:15;;;;;;;10.05;2.35;;;;;;;;;;4979541;28;20034;-75
2022/10/17 08:11:42;;;;;;;8.98;2.33;;;;;;;;;;4979498;28;20108;-75
2022/10/17 08:14:12;;;;;;;10.75;2.40;;;;;;;;;;4996904;28;20494;-75
2022/10/17 08:16:38;;;;;;;11.52;3.67;;;;;;;;;;4996681;28;20035;-75
2022/10/17 08:19:04;;;;;;;11.80;2.40;;;;;;;;;;4996691;28;20038;-75
2022/10/17 08:21:30;;;;;;;10.50;2.60;;;;;;;;;;4979703;28;20037;-75
2022/10/17 08:23:55;;;;;;;11.68;2.80;;;;;;;;;;4997030;28;20030;-75
2022/10/17 08:26:21;;;;;;;10.55;2.63;;;;;;;;;;4996841;28;20497;-75
2022/10/17 08:28:46;;;;;;;14.07;2.60;;;;;;;;;;4996847;28;20450;-75
2022/10/17 08:31:17;;;;;;;10.13;2.38;;;;;;;;;;4996793;28;20458;-75
2022/10/17 08:33:43;;;;;;;13.23;2.70;;;;;;;;;;4996713;28;20379;-75
2022/10/17 08:36:09;;;;;;;16.95;3.03;;;;;;;;;;4996301;28;20490;-75
2022/10/17 08:38:36;;;;;;;11.68;2.50;;;;;;;;;;4996238;28;20556;-75
2022/10/17 08:41:05;;;;;;;9.30;2.40;;;;;;;;;;4996579;28;20022;-76
2022/10/17 08:43:38;;;;;;;9.43;2.70;;;;;;;;;;4996224;28;20037;-75
2022/10/17 08:46:06;;;;;;;11.18;2.47;;;;;;;;;;4996354;28;20033;-75
2022/10/17 08:48:41;;;;;;;12.50;2.80;;;;;;;;;;4978717;28;20030;-75
2022/10/17 08:51:36;;;;;;;13.35;2.55;;;;;;;;;;4996459;28;20026;-75
2022/10/17 08:54:15;;;;;;;11.60;2.50;;;;;;;;;;4993252;28;20494;-75
2022/10/17 08:56:47;;;;;;;13.85;2.58;;;;;;;;;;4996393;28;20027;-75
2022/10/17 08:59:17;;;;;;;10.93;2.40;;;;;;;;;;4996089;28;20390;-75
2022/10/17 09:01:56;;;;;;;11.45;2.25;;;;;;;;;;4979034;28;20036;-75
2022/10/17 09:04:24;;;;;;;11.25;2.50;;;;;;;;;;4996145;28;20097;-75
2022/10/17 09:06:52;;;;;;;9.52;2.40;;;;;;;;;;4996035;28;20486;-75
2022/10/17 09:09:30;;;;;;;13.85;2.70;;;;;;;;;;4996364;28;20533;-75
2022/10/17 09:11:56;;;;;;;7.78;2.50;;;;;;;;;;4996060;28;20038;-75
2022/10/17 09:14:24;;;;;;;12.02;2.50;;;;;;;;;;4996146;28;20113;-75
2022/10/17 09:17:01;;;;;;;10.68;2.58;;;;;;;;;;4995610;28;20082;-75
2022/10/17 09:19:51;;;;;;;13.32;2.88;;;;;;;;;;4995629;28;20077;-76
2022/10/17 09:22:23;;;;;;;13.85;2.63;;;;;;;;;;4978197;28;20398;-75
2022/10/17 09:25:02;;;;;;;16.88;3.03;;;;;;;;;;4995665;28;20041;-76
2022/10/17 09:27:53;;;;;;;10.52;2.67;;;;;;;;;;4995666;28;20030;-76
2022/10/17 09:30:42;;;;;;;15.07;3.10;;;;;;;;;;4982729;28;20048;-74
2022/10/17 09:33:17;;;;;;;14.05;3.20;;;;;;;;;;4977232;28;20043;-75
2022/10/17 09:35:43;;;;;;;13.48;3.08;;;;;;;;;;4995066;28;20074;-75
2022/10/17 09:38:35;;;;;;;11.70;2.67;;;;;;;;;;4995271;28;20089;-74
2022/10/17 09:41:01;;;;;;;15.75;3.10;;;;;;;;;;4995341;28;20030;-75
2022/10/17 09:43:27;;;;;;;18.70;2.97;;;;;;;;;;4995198;28;20030;-75
2022/10/17 09:45:58;;;;;;;16.90;2.95;;;;;;;;;;4995323;28;20027;-75
2022/10/17 09:48:35;;;;;;;15.13;3.00;;;;;;;;;;4995287;28;20390;-75
2022/10/17 09:51:01;;;;;;;14.57;3.00;;;;;;;;;;4994355;28;20497;-74
2022/10/17 09:53:35;;;;;;;11.35;2.78;;;;;;;;;;4977614;28;20084;-74
2022/10/17 09:56:03;;;;;;;12.10;3.08;;;;;;;;;;4994981;28;20034;-74
2022/10/17 09:58:42;;;;;;;14.88;2.88;;;;;;;;;;4994955;28;20474;-75
2022/10/17 10:01:22;;;;;;;13.80;2.92;;;;;;;;;;4995188;28;20023;-74
2022/10/17 10:04:06;;;;;;;10.23;2.90;;;;;;;;;;4995043;28;20022;-75
2022/10/17 10:06:32;;;;;;;10.50;2.60;;;;;;;;;;4994972;28;20058;-74
2022/10/17 10:08:57;;;;;;;12.05;2.65;;;;;;;;;;4994722;28;20497;-75
2022/10/17 10:11:43;;;;;;;12.60;2.60;;;;;;;;;;4994981;28;20033;-75
2022/10/17 10:14:21;;;;;;;12.85;2.53;;;;;;;;;;4993758;28;20035;-74
2022/10/17 10:16:48;;;;;;;9.48;2.53;;;;;;;;;;4994533;28;20509;-76
2022/10/17 10:19:30;;;;;;;14.18;2.95;;;;;;;;;;4994818;28;20029;-75
2022/10/17 10:22:01;;;;;;;12.45;3.08;;;;;;;;;;4994490;28;20019;-76
2022/10/17 10:24:28;;;;;;;12.05;2.92;;;;;;;;;;4994930;28;20390;-76
2022/10/17 10:26:59;;;;;;;13.20;3.00;;;;;;;;;;4994570;28;20026;-76
2022/10/17 10:29:31;;;;;;;10.55;2.63;;;;;;;;;;4994415;28;20037;-76
2022/10/17 10:32:17;;;;;;;15.05;2.97;;;;;;;;;;4994360;28;20023;-76
2022/10/17 10:34:53;;;;;;;11.10;2.75;;;;;;;;;;4994039;28;20121;-76
2022/10/17 10:37:23;;;;;;;14.65;2.90;;;;;;;;;;4976961;28;20026;-76
2022/10/17 10:39:50;;;;;;;;;;;;;;;;;;4977543;28;20085;-76
2022/10/17 10:42:20;;;;;;;11.10;2.63;;;;;;;;;;4994378;28;20387;-76
2022/10/17 10:44:47;;;;;;;11.63;2.72;;;;;;;;;;4994221;28;20342;-75
2022/10/17 10:47:30;;;;;;;16.75;2.90;;;;;;;;;;4994096;28;20034;-75
2022/10/17 10:50:23;;;;;;;14.15;2.75;;;;;;;;;;4994237;28;20415;-75
2022/10/17 10:53:06;;;;;;;9.63;2.83;;;;;;;;;;4994240;28;20478;-75
2022/10/17 10:55:37;;;;;;;13.40;2.78;;;;;;;;;;4994095;28;20035;-75
2022/10/17 10:58:12;;;;;;;17.92;2.90;;;;;;;;;;4994198;28;20474;-74
2022/10/17 11:00:38;;;;;;;12.73;2.80;;;;;;;;;;4994001;28;20056;-75
2022/10/17 11:03:09;;;;;;;11.82;2.90;;;;;;;;;;4993842;28;20033;-75
2022/10/17 11:05:54;;;;;;;12.98;2.80;;;;;;;;;;4993788;28;20041;-75
2022/10/17 11:08:33;;;;;;;12.25;2.63;;;;;;;;;;4993927;28;20034;-75
2022/10/17 11:11:24;;;;;;;16.30;3.25;;;;;;;;;;4976780;28;20117;-75
2022/10/17 11:14:00;;;;;;;13.95;2.92;;;;;;;;;;4993135;28;20096;-74
2022/10/17 11:16:38;;;;;;;11.70;3.15;;;;;;;;;;4993852;28;20504;-74
2022/10/17 11:19:16;;;;;;;10.43;3.08;;;;;;;;;;4993819;28;20030;-75
2022/10/17 11:22:20;;;;;;;13.82;2.97;;;;;;;;;;4993802;28;20022;-74
2022/10/17 11:25:13;;;;;;;12.18;3.10;;;;;;;;;;4992932;28;20081;-75
2022/10/17 11:27:39;;;;;;;18.42;3.28;;;;;;;;;;4993573;28;20023;-75
2022/10/17 11:30:05;;;;;;;15.63;2.88;;;;;;;;;;4976242;28;20457;-75
2022/10/17 11:32:48;;;;;;;13.35;3.00;;;;;;;;;;4975925;28;20018;-75
2022/10/17 11:35:20;;;;;;;14.25;3.13;;;;;;;;;;4993737;28;20118;-75
2022/10/17 11:37:52;;;;;;;12.23;2.95;;;;;;;;;;4993687;28;20070;-75
2022/10/17 11:40:34;;;;;;;15.00;3.10;;;;;;;;;;4993378;28;20061;-75
2022/10/17 11:43:03;;;;;;;12.98;3.25;;;;;;;;;;4993579;28;20385;-74
2022/10/17 11:45:35;;;;;;;15.20;3.30;;;;;;;;;;4993587;28;20482;-75
2022/10/17 11:48:06;;;;;;;15.77;3.25;;;;;;;;;;4993639;28;20027;-75
2022/10/17 11:50:41;;;;;;;11.00;2.88;;;;;;;;;;4993671;28;20026;-75
2022/10/17 11:53:18;;;;;;;12.73;3.15;;;;;;;;;;4993553;28;20038;-75
2022/10/17 11:55:45;;;;;;;13.40;3.13;;;;;;;;;;4993426;28;20066;-75
2022/10/17 11:58:31;;;;;;;14.88;3.35;;;;;;;;;;4993451;28;20082;-75
2022/10/17 12:01:00;;;;;;;12.13;3.10;;;;;;;;;;4993415;28;20030;-75
2022/10/17 12:03:41;;;;;;;14.40;2.92;;;;;;;;;;4976239;28;20080;-75
2022/10/17 12:06:19;;;;;;;10.50;2.88;;;;;;;;;;4976008;28;20077;-75
2022/10/17 12:09:10;;;;;;;12.63;3.17;;;;;;;;;;4993537;28;20130;-75
2022/10/17 12:11:55;;;;;;;14.75;3.00;;;;;;;;;;4993357;28;20026;-75
2022/10/17 12:14:39;;;;;;;11.45;2.90;;;;;;;;;;4996320;28;20030;-75
2022/10/17 12:17:38;;;;;;;16.77;3.33;;;;;;;;;;4996839;28;20105;-75
2022/10/17 12:20:31;;;;;;;10.65;2.70;;;;;;;;;;4987398;28;20129;-75
2022/10/17 12:23:11;;;;;;;13.88;2.90;;;;;;;;;;4975593;28;20486;-75
2022/10/17 12:26:03;;;;;;;13.38;2.65;;;;;;;;;;4996879;28;20022;-74
2022/10/17 12:28:30;;;;;;;17.73;2.85;;;;;;;;;;4996989;28;20083;-74
2022/10/17 12:31:11;;;;;;;12.40;2.78;;;;;;;;;;4996564;28;20030;-75
2022/10/17 12:33:44;;;;;;;14.07;2.80;;;;;;;;;;4996799;28;20069;-75
2022/10/17 12:36:15;;;;;;;15.82;2.97;;;;;;;;;;4996254;28;20490;-75
2022/10/17 12:38:42;;;;;;;12.90;2.78;;;;;;;;;;4979037;28;20038;-75
2022/10/17 12:41:07;;;;;;;14.93;2.92;;;;;;;;;;4996476;28;20053;-74
2022/10/17 12:43:36;;;;;;;12.63;2.88;;;;;;;;;;4997074;28;20106;-74
2022/10/17 12:46:03;;;;;;;11.82;2.72;;;;;;;;;;4996950;28;20031;-75
2022/10/17 12:48:35;;;;;;;10.38;2.55;;;;;;;;;;4996603;28;20037;-75
2022/10/17 12:51:08;;;;;;;15.60;2.75;;;;;;;;;;4978801;28;20117;-75
2022/10/17 12:53:53;;;;;;;16.35;2.63;;;;;;;;;;4996265;28;20022;-75
2022/10/17 12:56:28;;;;;;;13.40;3.05;;;;;;;;;;4996417;28;20034;-75
2022/10/17 12:58:56;;;;;;;11.40;2.58;;;;;;;;;;4978749;28;20092;-75
2022/10/17 13:01:28;;;;;;;14.10;2.53;;;;;;;;;;4996294;28;20029;-75
2022/10/17 13:03:55;;;;;;;12.73;2.80;;;;;;;;;;4996070;28;20426;-75
2022/10/17 13:06:26;;;;;;;10.95;2.65;;;;;;;;;;4996020;28;20026;-75
2022/10/17 13:09:32;;;;;;;14.90;2.83;;;;;;;;;;4996005;28;20058;-75
2022/10/17 13:12:01;;;;;;;13.57;2.90;;;;;;;;;;4995475;28;20041;-75
2022/10/17 13:14:27;;;;;;;14.25;3.03;;;;;;;;;;4995949;28;20490;-75
2022/10/17 13:16:57;;;;;;;14.00;2.67;;;;;;;;;;4978279;28;20104;-75
2022/10/17 13:19:29;;;;;;;11.63;3.03;;;;;;;;;;4996073;28;20026;-75
2022/10/17 13:21:59;;;;;;;18.55;2.72;;;;;;;;;;4978197;28;20025;-75
2022/10/17 13:24:31;;;;;;;16.73;2.88;;;;;;;;;;4995142;28;20085;-75
2022/10/17 13:26:58;;;;;;;15.18;2.80;;;;;;;;;;4996123;28;20026;-75
2022/10/17 13:29:24;;;;;;;14.85;2.63;;;;;;;;;;4995508;28;20030;-75
2022/10/17 13:32:03;;;;;;;14.25;2.85;;;;;;;;;;4995639;28;20470;-75
2022/10/17 13:34:30;;;;;;;12.43;2.45;;;;;;;;;;4977789;28;20100;-75
2022/10/17 13:36:59;;;;;;;12.57;2.70;;;;;;;;;;4977856;28;20125;-75
2022/10/17 13:39:28;;;;;;;9.20;2.67;;;;;;;;;;4995442;28;20050;-75
2022/10/17 13:41:56;;;;;;;12.43;2.67;;;;;;;;;;4995385;28;20497;-75
2022/10/17 13:44:27;;;;;;;12.60;3.13;;;;;;;;;;4995300;28;20038;-75
2022/10/17 13:46:53;;;;;;;16.05;2.95;;;;;;;;;;4995260;28;20030;-75
2022/10/17 13:49:25;;;;;;;12.95;2.67;;;;;;;;;;4995191;28;20034;-75
2022/10/17 13:51:52;;;;;;;10.75;3.08;;;;;;;;;;4995682;28;20038;-75
2022/10/17 13:54:32;;;;;;;12.50;2.60;;;;;;;;;;4977779;28;20070;-75
2022/10/17 13:56:59;;;;;;;14.02;3.10;;;;;;;;;;4995163;28;20430;-75
2022/10/17 13:59:31;;;;;;;15.77;3.00;;;;;;;;;;4995394;28;20037;-75
2022/10/17 14:01:57;;;;;;;9.90;2.30;;;;;;;;;;4995403;28;20042;-75
2022/10/17 14:04:22;;;;;;;13.15;2.90;;;;;;;;;;4977427;28;20034;-75
2022/10/17 14:06:48;;;;;;;13.10;2.70;;;;;;;;;;4994869;28;20113;-75
2022/10/17 14:09:29;;;;;;;13.55;2.50;;;;;;;;;;4994836;28;20391;-74
2022/10/17 14:12:01;;;;;;;15.43;2.83;;;;;;;;;;4994818;28;20037;-75
2022/10/17 14:14:27;;;;;;;14.70;2.90;;;;;;;;;;4995081;28;20026;-75
2022/10/17 14:16:53;;;;;;;14.15;2.78;;;;;;;;;;4994870;28;20053;-75
2022/10/17 14:19:21;;;;;;;12.70;2.72;;;;;;;;;;4995029;28;20454;-75
2022/10/17 14:21:48;;;;;;;15.68;2.75;;;;;;;;;;4994715;28;20034;-75
2022/10/17 14:24:13;;;;;;;10.00;2.38;;;;;;;;;;4977334;28;20038;-75
2022/10/17 14:26:53;;;;;;;11.75;2.40;;;;;;;;;;4994574;28;20030;-75
2022/10/17 14:29:26;;;;;;;13.10;2.78;;;;;;;;;;4994576;28;20025;-75
2022/10/17 14:32:00;;;;;;;11.57;2.72;;;;;;;;;;4977031;28;20130;-75
2022/10/17 14:34:31;;;;;;;13.30;2.55;;;;;;;;;;4994270;28;20032;-75
2022/10/17 14:36:57;;;;;;;12.48;2.75;;;;;;;;;;4994097;28;20078;-75
2022/10/17 14:39:25;;;;;;;12.25;2.85;;;;;;;;;;4994330;28;20030;-75
2022/10/17 14:41:51;;;;;;;10.52;2.65;;;;;;;;;;4994423;28;20027;-75
2022/10/17 14:44:37;;;;;;;10.80;2.60;;;;;;;;;;4994220;28;20084;-75
2022/10/17 14:47:05;;;;;;;10.48;2.55;;;;;;;;;;4994433;28;20050;-75
2022/10/17 14:49:32;;;;;;;15.80;2.95;;;;;;;;;;4994197;28;20026;-75
2022/10/17 14:52:11;;;;;;;12.82;2.63;;;;;;;;;;4994201;28;20034;-75
2022/10/17 14:54:37;;;;;;;13.48;2.70;;;;;;;;;;4994162;28;20030;-75